sensor_id;sensor_type;location;lat;lon;timestamp;P1;durP1;ratioP1;P2;durP2;ratioP2
57325;SDS011;43161;50.950;18.224;2023-04-24T00:00:03;14.70;;;8.00;;
57325;SDS011;43161;50.950;18.224;2023-04-24T00:02:34;15.30;;;7.90;;
57325;SDS011;43161;50.950;18.224;2023-04-24T00:05:04;15.60;;;7.90;;
57325;SDS011;43161;50.950;18.224;2023-04-24T00:07:31;16.10;;;7.80;;
57325;SDS011;43161;50.950;18.224;2023-04-24T00:09:56;15.10;;;8.20;;
57325;SDS011;43161;50.950;18.224;2023-04-24T00:12:22;14.80;;;7.80;;
57325;SDS011;43161;50.950;18.224;2023-04-24T00:14:49;15.10;;;7.90;;
57325;SDS011;43161;50.950;18.224;2023-04-24T00:17:15;14.50;;;7.50;;
57325;SDS011;43161;50.950;18.224;2023-04-24T00:19:41;13.90;;;7.30;;
57325;SDS011;43161;50.950;18.224;2023-04-24T00:22:06;14.10;;;7.70;;
57325;SDS011;43161;50.950;18.224;2023-04-24T00:24:32;14.70;;;6.90;;
57325;SDS011;43161;50.950;18.224;2023-04-24T00:26:58;14.40;;;7.00;;
57325;SDS011;43161;50.950;18.224;2023-04-24T00:29:24;14.90;;;7.60;;
57325;SDS011;43161;50.950;18.224;2023-04-24T00:31:50;14.70;;;7.40;;
57325;SDS011;43161;50.950;18.224;2023-04-24T00:34:16;14.80;;;7.40;;
57325;SDS011;43161;50.950;18.224;2023-04-24T00:36:41;15.00;;;7.10;;
57325;SDS011;43161;50.950;18.224;2023-04-24T00:39:07;13.20;;;7.00;;
57325;SDS011;43161;50.950;18.224;2023-04-24T00:41:35;14.10;;;6.30;;
57325;SDS011;43161;50.950;18.224;2023-04-24T00:44:01;14.20;;;6.50;;
57325;SDS011;43161;50.950;18.224;2023-04-24T00:46:27;14.70;;;6.30;;
57325;SDS011;43161;50.950;18.224;2023-04-24T00:48:53;12.00;;;6.50;;
57325;SDS011;43161;50.950;18.224;2023-04-24T00:51:21;11.10;;;5.80;;
57325;SDS011;43161;50.950;18.224;2023-04-24T00:53:49;13.20;;;5.90;;
57325;SDS011;43161;50.950;18.224;2023-04-24T00:56:17;11.30;;;5.30;;
57325;SDS011;43161;50.950;18.224;2023-04-24T00:58:43;13.90;;;6.00;;
57325;SDS011;43161;50.950;18.224;2023-04-24T01:01:09;12.20;;;6.00;;
57325;SDS011;43161;50.950;18.224;2023-04-24T01:03:36;12.70;;;5.70;;
57325;SDS011;43161;50.950;18.224;2023-04-24T01:06:03;12.50;;;5.90;;
57325;SDS011;43161;50.950;18.224;2023-04-24T01:08:29;13.70;;;6.30;;
57325;SDS011;43161;50.950;18.224;2023-04-24T01:10:56;13.10;;;6.40;;
57325;SDS011;43161;50.950;18.224;2023-04-24T01:13:23;13.90;;;6.40;;
57325;SDS011;43161;50.950;18.224;2023-04-24T01:15:49;12.60;;;6.40;;
57325;SDS011;43161;50.950;18.224;2023-04-24T01:18:15;14.80;;;6.10;;
57325;SDS011;43161;50.950;18.224;2023-04-24T01:20:41;12.40;;;6.10;;
57325;SDS011;43161;50.950;18.224;2023-04-24T01:23:09;14.70;;;6.00;;
57325;SDS011;43161;50.950;18.224;2023-04-24T01:25:36;13.60;;;6.20;;
57325;SDS011;43161;50.950;18.224;2023-04-24T01:28:02;12.00;;;5.80;;
57325;SDS011;43161;50.950;18.224;2023-04-24T01:30:28;13.50;;;5.50;;
57325;SDS011;43161;50.950;18.224;2023-04-24T01:32:54;11.90;;;5.50;;
57325;SDS011;43161;50.950;18.224;2023-04-24T01:35:20;13.30;;;5.40;;
57325;SDS011;43161;50.950;18.224;2023-04-24T01:37:46;12.10;;;5.90;;
57325;SDS011;43161;50.950;18.224;2023-04-24T01:40:12;13.00;;;6.20;;
57325;SDS011;43161;50.950;18.224;2023-04-24T01:42:40;15.00;;;7.00;;
57325;SDS011;43161;50.950;18.224;2023-04-24T01:45:06;13.70;;;5.80;;
57325;SDS011;43161;50.950;18.224;2023-04-24T01:47:35;12.30;;;6.30;;
57325;SDS011;43161;50.950;18.224;2023-04-24T01:50:02;13.50;;;5.60;;
57325;SDS011;43161;50.950;18.224;2023-04-24T01:52:28;15.40;;;5.90;;
57325;SDS011;43161;50.950;18.224;2023-04-24T01:54:56;13.20;;;5.90;;
57325;SDS011;43161;50.950;18.224;2023-04-24T01:57:25;14.20;;;6.70;;
57325;SDS011;43161;50.950;18.224;2023-04-24T01:59:51;12.40;;;5.80;;
57325;SDS011;43161;50.950;18.224;2023-04-24T02:02:17;15.40;;;6.60;;
57325;SDS011;43161;50.950;18.224;2023-04-24T02:04:42;14.50;;;7.00;;
57325;SDS011;43161;50.950;18.224;2023-04-24T02:07:08;16.20;;;6.90;;
57325;SDS011;43161;50.950;18.224;2023-04-24T02:09:34;16.10;;;7.00;;
57325;SDS011;43161;50.950;18.224;2023-04-24T02:12:00;14.40;;;7.40;;
57325;SDS011;43161;50.950;18.224;2023-04-24T02:14:26;14.70;;;6.60;;
57325;SDS011;43161;50.950;18.224;2023-04-24T02:16:51;13.90;;;7.00;;
57325;SDS011;43161;50.950;18.224;2023-04-24T02:19:18;16.00;;;7.50;;
57325;SDS011;43161;50.950;18.224;2023-04-24T02:21:44;16.70;;;7.40;;
57325;SDS011;43161;50.950;18.224;2023-04-24T02:24:10;15.70;;;8.20;;
57325;SDS011;43161;50.950;18.224;2023-04-24T02:26:36;15.60;;;7.70;;
57325;SDS011;43161;50.950;18.224;2023-04-24T02:29:01;17.30;;;8.40;;
57325;SDS011;43161;50.950;18.224;2023-04-24T02:31:27;17.50;;;8.60;;
57325;SDS011;43161;50.950;18.224;2023-04-24T02:33:53;13.80;;;7.90;;
57325;SDS011;43161;50.950;18.224;2023-04-24T02:36:18;16.30;;;8.30;;
57325;SDS011;43161;50.950;18.224;2023-04-24T02:38:44;17.10;;;9.00;;
57325;SDS011;43161;50.950;18.224;2023-04-24T02:41:09;19.00;;;7.90;;
57325;SDS011;43161;50.950;18.224;2023-04-24T02:43:36;16.10;;;8.30;;
57325;SDS011;43161;50.950;18.224;2023-04-24T02:46:02;15.80;;;7.90;;
57325;SDS011;43161;50.950;18.224;2023-04-24T02:48:28;14.70;;;7.90;;
57325;SDS011;43161;50.950;18.224;2023-04-24T02:50:53;15.10;;;8.30;;
57325;SDS011;43161;50.950;18.224;2023-04-24T02:53:19;15.30;;;8.30;;
57325;SDS011;43161;50.950;18.224;2023-04-24T02:55:45;15.70;;;8.20;;
57325;SDS011;43161;50.950;18.224;2023-04-24T02:58:11;22.90;;;11.80;;
57325;SDS011;43161;50.950;18.224;2023-04-24T03:00:38;21.30;;;11.50;;
57325;SDS011;43161;50.950;18.224;2023-04-24T03:03:05;18.40;;;9.80;;
57325;SDS011;43161;50.950;18.224;2023-04-24T03:05:30;18.90;;;9.70;;
57325;SDS011;43161;50.950;18.224;2023-04-24T03:07:56;20.90;;;11.30;;
57325;SDS011;43161;50.950;18.224;2023-04-24T03:10:22;16.00;;;8.60;;
57325;SDS011;43161;50.950;18.224;2023-04-24T03:12:48;20.60;;;11.50;;
57325;SDS011;43161;50.950;18.224;2023-04-24T03:15:15;20.40;;;9.60;;
57325;SDS011;43161;50.950;18.224;2023-04-24T03:17:41;17.50;;;8.80;;
57325;SDS011;43161;50.950;18.224;2023-04-24T03:20:07;15.70;;;8.30;;
57325;SDS011;43161;50.950;18.224;2023-04-24T03:22:33;16.60;;;8.60;;
57325;SDS011;43161;50.950;18.224;2023-04-24T03:25:00;21.10;;;10.40;;
57325;SDS011;43161;50.950;18.224;2023-04-24T03:27:26;27.80;;;11.70;;
57325;SDS011;43161;50.950;18.224;2023-04-24T03:29:52;22.70;;;10.90;;
57325;SDS011;43161;50.950;18.224;2023-04-24T03:32:23;26.30;;;11.80;;
57325;SDS011;43161;50.950;18.224;2023-04-24T03:34:49;26.90;;;12.50;;
57325;SDS011;43161;50.950;18.224;2023-04-24T03:37:15;22.40;;;10.20;;
57325;SDS011;43161;50.950;18.224;2023-04-24T03:39:41;16.80;;;9.00;;
57325;SDS011;43161;50.950;18.224;2023-04-24T03:42:08;15.00;;;7.40;;
57325;SDS011;43161;50.950;18.224;2023-04-24T03:44:34;12.00;;;6.20;;
57325;SDS011;43161;50.950;18.224;2023-04-24T03:47:00;15.00;;;7.70;;
57325;SDS011;43161;50.950;18.224;2023-04-24T03:49:26;14.90;;;8.10;;
57325;SDS011;43161;50.950;18.224;2023-04-24T03:51:52;16.90;;;7.90;;
57325;SDS011;43161;50.950;18.224;2023-04-24T03:54:19;15.70;;;8.10;;
57325;SDS011;43161;50.950;18.224;2023-04-24T03:56:44;16.80;;;8.40;;
57325;SDS011;43161;50.950;18.224;2023-04-24T03:59:11;16.30;;;8.00;;
57325;SDS011;43161;50.950;18.224;2023-04-24T04:01:37;15.00;;;8.60;;
57325;SDS011;43161;50.950;18.224;2023-04-24T04:04:03;14.80;;;8.60;;
57325;SDS011;43161;50.950;18.224;2023-04-24T04:06:29;18.20;;;8.50;;
57325;SDS011;43161;50.950;18.224;2023-04-24T04:08:56;17.40;;;8.40;;
57325;SDS011;43161;50.950;18.224;2023-04-24T04:11:23;15.90;;;8.40;;
57325;SDS011;43161;50.950;18.224;2023-04-24T04:13:48;16.80;;;8.20;;
57325;SDS011;43161;50.950;18.224;2023-04-24T04:16:14;20.00;;;9.30;;
57325;SDS011;43161;50.950;18.224;2023-04-24T04:18:42;17.90;;;8.90;;
57325;SDS011;43161;50.950;18.224;2023-04-24T04:21:08;21.40;;;9.50;;
57325;SDS011;43161;50.950;18.224;2023-04-24T04:23:33;16.70;;;9.20;;
57325;SDS011;43161;50.950;18.224;2023-04-24T04:26:00;18.70;;;8.90;;
57325;SDS011;43161;50.950;18.224;2023-04-24T04:28:26;17.30;;;9.20;;
57325;SDS011;43161;50.950;18.224;2023-04-24T04:30:52;16.90;;;9.00;;
57325;SDS011;43161;50.950;18.224;2023-04-24T04:33:23;17.40;;;9.20;;
57325;SDS011;43161;50.950;18.224;2023-04-24T04:35:49;15.90;;;9.50;;
57325;SDS011;43161;50.950;18.224;2023-04-24T04:38:17;17.20;;;9.30;;
57325;SDS011;43161;50.950;18.224;2023-04-24T04:40:44;18.50;;;10.00;;
57325;SDS011;43161;50.950;18.224;2023-04-24T04:43:11;21.00;;;11.00;;
57325;SDS011;43161;50.950;18.224;2023-04-24T04:45:38;21.30;;;10.70;;
57325;SDS011;43161;50.950;18.224;2023-04-24T04:48:06;17.90;;;9.80;;
57325;SDS011;43161;50.950;18.224;2023-04-24T04:50:37;19.70;;;9.60;;
57325;SDS011;43161;50.950;18.224;2023-04-24T04:53:03;18.90;;;10.10;;
57325;SDS011;43161;50.950;18.224;2023-04-24T04:55:29;17.80;;;9.10;;
57325;SDS011;43161;50.950;18.224;2023-04-24T04:57:55;16.90;;;9.00;;
57325;SDS011;43161;50.950;18.224;2023-04-24T05:00:21;16.30;;;9.40;;
57325;SDS011;43161;50.950;18.224;2023-04-24T05:02:49;16.50;;;8.90;;
57325;SDS011;43161;50.950;18.224;2023-04-24T05:05:15;17.40;;;9.00;;
57325;SDS011;43161;50.950;18.224;2023-04-24T05:07:42;17.60;;;8.80;;
57325;SDS011;43161;50.950;18.224;2023-04-24T05:10:08;16.80;;;9.10;;
57325;SDS011;43161;50.950;18.224;2023-04-24T05:12:34;18.00;;;9.40;;
57325;SDS011;43161;50.950;18.224;2023-04-24T05:14:59;19.50;;;9.70;;
57325;SDS011;43161;50.950;18.224;2023-04-24T05:17:25;18.30;;;9.90;;
57325;SDS011;43161;50.950;18.224;2023-04-24T05:19:51;17.30;;;8.70;;
57325;SDS011;43161;50.950;18.224;2023-04-24T05:22:17;17.10;;;9.00;;
57325;SDS011;43161;50.950;18.224;2023-04-24T05:24:46;19.80;;;9.90;;
57325;SDS011;43161;50.950;18.224;2023-04-24T05:27:12;16.80;;;9.60;;
57325;SDS011;43161;50.950;18.224;2023-04-24T05:29:37;17.30;;;9.20;;
57325;SDS011;43161;50.950;18.224;2023-04-24T05:32:03;16.40;;;9.20;;
57325;SDS011;43161;50.950;18.224;2023-04-24T05:34:29;17.40;;;8.60;;
57325;SDS011;43161;50.950;18.224;2023-04-24T05:36:55;18.90;;;9.60;;
57325;SDS011;43161;50.950;18.224;2023-04-24T05:39:21;19.50;;;9.80;;
57325;SDS011;43161;50.950;18.224;2023-04-24T05:41:46;19.30;;;9.60;;
57325;SDS011;43161;50.950;18.224;2023-04-24T05:44:12;17.10;;;9.00;;
57325;SDS011;43161;50.950;18.224;2023-04-24T05:46:38;15.90;;;8.70;;
57325;SDS011;43161;50.950;18.224;2023-04-24T05:49:03;19.00;;;9.50;;
57325;SDS011;43161;50.950;18.224;2023-04-24T05:51:29;15.50;;;8.60;;
57325;SDS011;43161;50.950;18.224;2023-04-24T05:53:57;18.30;;;8.50;;
57325;SDS011;43161;50.950;18.224;2023-04-24T05:56:22;15.70;;;8.20;;
57325;SDS011;43161;50.950;18.224;2023-04-24T05:58:48;17.00;;;8.90;;
57325;SDS011;43161;50.950;18.224;2023-04-24T06:01:14;23.30;;;9.30;;
57325;SDS011;43161;50.950;18.224;2023-04-24T06:03:40;16.90;;;9.00;;
57325;SDS011;43161;50.950;18.224;2023-04-24T06:06:07;16.80;;;8.20;;
57325;SDS011;43161;50.950;18.224;2023-04-24T06:08:33;16.50;;;8.30;;
57325;SDS011;43161;50.950;18.224;2023-04-24T06:10:59;15.20;;;7.90;;
57325;SDS011;43161;50.950;18.224;2023-04-24T06:13:25;15.00;;;7.90;;
57325;SDS011;43161;50.950;18.224;2023-04-24T06:15:51;16.30;;;8.20;;
57325;SDS011;43161;50.950;18.224;2023-04-24T06:18:16;17.90;;;7.90;;
57325;SDS011;43161;50.950;18.224;2023-04-24T06:20:42;15.20;;;7.60;;
57325;SDS011;43161;50.950;18.224;2023-04-24T06:23:07;14.20;;;7.50;;
57325;SDS011;43161;50.950;18.224;2023-04-24T06:25:33;17.00;;;7.30;;
57325;SDS011;43161;50.950;18.224;2023-04-24T06:27:59;15.40;;;7.20;;
57325;SDS011;43161;50.950;18.224;2023-04-24T06:30:25;14.60;;;7.10;;
57325;SDS011;43161;50.950;18.224;2023-04-24T06:32:52;17.50;;;7.10;;
57325;SDS011;43161;50.950;18.224;2023-04-24T06:35:18;13.60;;;6.90;;
57325;SDS011;43161;50.950;18.224;2023-04-24T06:37:43;26.70;;;8.30;;
57325;SDS011;43161;50.950;18.224;2023-04-24T06:40:09;22.80;;;7.60;;
57325;SDS011;43161;50.950;18.224;2023-04-24T06:42:35;18.00;;;7.80;;
57325;SDS011;43161;50.950;18.224;2023-04-24T06:45:01;17.10;;;8.20;;
57325;SDS011;43161;50.950;18.224;2023-04-24T06:47:27;15.00;;;7.30;;
57325;SDS011;43161;50.950;18.224;2023-04-24T06:49:53;15.00;;;7.60;;
57325;SDS011;43161;50.950;18.224;2023-04-24T06:52:20;14.10;;;6.60;;
57325;SDS011;43161;50.950;18.224;2023-04-24T06:54:46;19.70;;;8.60;;
57325;SDS011;43161;50.950;18.224;2023-04-24T06:57:12;21.20;;;9.00;;
57325;SDS011;43161;50.950;18.224;2023-04-24T06:59:37;18.20;;;8.00;;
57325;SDS011;43161;50.950;18.224;2023-04-24T07:02:03;15.00;;;7.80;;
57325;SDS011;43161;50.950;18.224;2023-04-24T07:04:29;14.80;;;7.30;;
57325;SDS011;43161;50.950;18.224;2023-04-24T07:06:56;15.50;;;8.30;;
57325;SDS011;43161;50.950;18.224;2023-04-24T07:09:23;17.20;;;9.00;;
57325;SDS011;43161;50.950;18.224;2023-04-24T07:11:50;14.80;;;7.80;;
57325;SDS011;43161;50.950;18.224;2023-04-24T07:14:17;15.70;;;8.40;;
57325;SDS011;43161;50.950;18.224;2023-04-24T07:16:43;19.20;;;9.10;;
57325;SDS011;43161;50.950;18.224;2023-04-24T07:19:09;15.30;;;8.30;;
57325;SDS011;43161;50.950;18.224;2023-04-24T07:21:34;15.00;;;8.60;;
57325;SDS011;43161;50.950;18.224;2023-04-24T07:24:00;15.50;;;8.40;;
57325;SDS011;43161;50.950;18.224;2023-04-24T07:26:27;16.20;;;8.30;;
57325;SDS011;43161;50.950;18.224;2023-04-24T07:28:54;14.40;;;7.50;;
57325;SDS011;43161;50.950;18.224;2023-04-24T07:31:20;15.00;;;7.30;;
57325;SDS011;43161;50.950;18.224;2023-04-24T07:33:46;15.60;;;7.40;;
57325;SDS011;43161;50.950;18.224;2023-04-24T07:36:12;14.90;;;7.90;;
57325;SDS011;43161;50.950;18.224;2023-04-24T07:38:42;12.80;;;6.80;;
57325;SDS011;43161;50.950;18.224;2023-04-24T07:41:08;13.00;;;6.70;;
57325;SDS011;43161;50.950;18.224;2023-04-24T07:43:34;12.70;;;5.90;;
57325;SDS011;43161;50.950;18.224;2023-04-24T07:46:00;13.00;;;6.10;;
57325;SDS011;43161;50.950;18.224;2023-04-24T07:48:26;10.20;;;5.10;;
57325;SDS011;43161;50.950;18.224;2023-04-24T07:50:52;12.60;;;5.30;;
57325;SDS011;43161;50.950;18.224;2023-04-24T07:53:18;12.20;;;5.90;;
57325;SDS011;43161;50.950;18.224;2023-04-24T07:55:44;12.50;;;5.70;;
57325;SDS011;43161;50.950;18.224;2023-04-24T07:58:10;13.10;;;5.50;;
57325;SDS011;43161;50.950;18.224;2023-04-24T08:00:35;12.10;;;5.40;;
57325;SDS011;43161;50.950;18.224;2023-04-24T08:03:01;12.60;;;5.30;;
57325;SDS011;43161;50.950;18.224;2023-04-24T08:05:27;13.20;;;5.00;;
57325;SDS011;43161;50.950;18.224;2023-04-24T08:07:54;9.80;;;4.90;;
57325;SDS011;43161;50.950;18.224;2023-04-24T08:10:23;12.40;;;5.00;;
57325;SDS011;43161;50.950;18.224;2023-04-24T08:12:49;11.30;;;5.00;;
57325;SDS011;43161;50.950;18.224;2023-04-24T08:15:15;10.20;;;4.60;;
57325;SDS011;43161;50.950;18.224;2023-04-24T08:17:40;11.80;;;5.10;;
57325;SDS011;43161;50.950;18.224;2023-04-24T08:20:06;10.90;;;4.90;;
57325;SDS011;43161;50.950;18.224;2023-04-24T08:22:38;11.20;;;5.00;;
57325;SDS011;43161;50.950;18.224;2023-04-24T08:25:06;12.60;;;5.20;;
57325;SDS011;43161;50.950;18.224;2023-04-24T08:27:32;13.30;;;5.50;;
57325;SDS011;43161;50.950;18.224;2023-04-24T08:29:58;11.40;;;4.90;;
57325;SDS011;43161;50.950;18.224;2023-04-24T08:32:25;13.90;;;5.30;;
57325;SDS011;43161;50.950;18.224;2023-04-24T08:34:54;13.20;;;5.30;;
57325;SDS011;43161;50.950;18.224;2023-04-24T08:37:23;10.90;;;5.50;;
57325;SDS011;43161;50.950;18.224;2023-04-24T08:39:49;10.60;;;5.40;;
57325;SDS011;43161;50.950;18.224;2023-04-24T08:42:16;13.20;;;5.20;;
57325;SDS011;43161;50.950;18.224;2023-04-24T08:44:43;10.90;;;5.10;;
57325;SDS011;43161;50.950;18.224;2023-04-24T08:47:09;10.80;;;4.90;;
57325;SDS011;43161;50.950;18.224;2023-04-24T08:49:36;12.10;;;4.90;;
57325;SDS011;43161;50.950;18.224;2023-04-24T08:52:02;10.40;;;4.90;;
57325;SDS011;43161;50.950;18.224;2023-04-24T08:54:28;11.90;;;5.10;;
57325;SDS011;43161;50.950;18.224;2023-04-24T08:56:57;12.10;;;5.20;;
57325;SDS011;43161;50.950;18.224;2023-04-24T08:59:27;11.70;;;5.20;;
57325;SDS011;43161;50.950;18.224;2023-04-24T09:01:54;10.60;;;5.20;;
57325;SDS011;43161;50.950;18.224;2023-04-24T09:04:20;10.20;;;4.80;;
57325;SDS011;43161;50.950;18.224;2023-04-24T09:06:49;11.30;;;5.20;;
57325;SDS011;43161;50.950;18.224;2023-04-24T09:09:16;11.20;;;4.50;;
57325;SDS011;43161;50.950;18.224;2023-04-24T09:11:44;9.70;;;4.80;;
57325;SDS011;43161;50.950;18.224;2023-04-24T09:14:10;11.30;;;4.80;;
57325;SDS011;43161;50.950;18.224;2023-04-24T09:16:36;12.60;;;5.00;;
57325;SDS011;43161;50.950;18.224;2023-04-24T09:19:02;13.90;;;5.10;;
57325;SDS011;43161;50.950;18.224;2023-04-24T09:21:32;10.00;;;4.80;;
57325;SDS011;43161;50.950;18.224;2023-04-24T09:23:59;12.80;;;5.70;;
57325;SDS011;43161;50.950;18.224;2023-04-24T09:26:28;11.20;;;5.40;;
57325;SDS011;43161;50.950;18.224;2023-04-24T09:28:57;12.70;;;5.30;;
57325;SDS011;43161;50.950;18.224;2023-04-24T09:31:22;12.40;;;5.40;;
57325;SDS011;43161;50.950;18.224;2023-04-24T09:36:25;11.40;;;5.30;;
57325;SDS011;43161;50.950;18.224;2023-04-24T09:38:58;19.00;;;5.60;;
57325;SDS011;43161;50.950;18.224;2023-04-24T09:41:24;12.90;;;5.50;;
57325;SDS011;43161;50.950;18.224;2023-04-24T09:43:53;11.80;;;5.20;;
57325;SDS011;43161;50.950;18.224;2023-04-24T09:46:19;10.90;;;5.30;;
57325;SDS011;43161;50.950;18.224;2023-04-24T09:48:47;11.20;;;5.20;;
57325;SDS011;43161;50.950;18.224;2023-04-24T09:51:13;12.20;;;5.20;;
57325;SDS011;43161;50.950;18.224;2023-04-24T09:53:44;12.00;;;5.50;;
57325;SDS011;43161;50.950;18.224;2023-04-24T09:56:11;11.30;;;5.50;;
57325;SDS011;43161;50.950;18.224;2023-04-24T09:58:38;12.60;;;5.40;;
57325;SDS011;43161;50.950;18.224;2023-04-24T10:01:04;11.70;;;5.40;;
57325;SDS011;43161;50.950;18.224;2023-04-24T10:03:31;11.00;;;5.60;;
57325;SDS011;43161;50.950;18.224;2023-04-24T10:06:01;13.60;;;5.80;;
57325;SDS011;43161;50.950;18.224;2023-04-24T10:08:32;11.00;;;5.20;;
57325;SDS011;43161;50.950;18.224;2023-04-24T10:10:59;11.20;;;5.30;;
57325;SDS011;43161;50.950;18.224;2023-04-24T10:13:25;13.20;;;5.70;;
57325;SDS011;43161;50.950;18.224;2023-04-24T10:15:50;11.60;;;5.70;;
57325;SDS011;43161;50.950;18.224;2023-04-24T10:18:16;11.50;;;5.40;;
57325;SDS011;43161;50.950;18.224;2023-04-24T10:20:42;10.60;;;5.20;;
57325;SDS011;43161;50.950;18.224;2023-04-24T10:23:08;12.40;;;5.30;;
57325;SDS011;43161;50.950;18.224;2023-04-24T10:25:34;12.30;;;5.30;;
57325;SDS011;43161;50.950;18.224;2023-04-24T10:28:01;10.70;;;5.40;;
57325;SDS011;43161;50.950;18.224;2023-04-24T10:30:28;11.50;;;4.70;;
57325;SDS011;43161;50.950;18.224;2023-04-24T10:32:55;10.30;;;4.50;;
57325;SDS011;43161;50.950;18.224;2023-04-24T10:35:21;12.70;;;5.60;;
57325;SDS011;43161;50.950;18.224;2023-04-24T10:37:51;12.40;;;5.70;;
57325;SDS011;43161;50.950;18.224;2023-04-24T10:40:27;11.40;;;5.90;;
57325;SDS011;43161;50.950;18.224;2023-04-24T10:42:59;12.30;;;6.10;;
57325;SDS011;43161;50.950;18.224;2023-04-24T10:45:27;12.80;;;5.90;;
57325;SDS011;43161;50.950;18.224;2023-04-24T10:48:01;13.20;;;5.70;;
57325;SDS011;43161;50.950;18.224;2023-04-24T10:50:28;10.70;;;5.20;;
57325;SDS011;43161;50.950;18.224;2023-04-24T10:55:42;11.00;;;5.50;;
57325;SDS011;43161;50.950;18.224;2023-04-24T11:03:58;12.80;;;6.00;;
57325;SDS011;43161;50.950;18.224;2023-04-24T11:06:32;11.50;;;5.70;;
57325;SDS011;43161;50.950;18.224;2023-04-24T11:09:04;15.20;;;6.00;;
57325;SDS011;43161;50.950;18.224;2023-04-24T11:11:37;11.30;;;5.50;;
57325;SDS011;43161;50.950;18.224;2023-04-24T11:14:06;10.70;;;5.40;;
57325;SDS011;43161;50.950;18.224;2023-04-24T11:19:18;11.00;;;5.40;;
57325;SDS011;43161;50.950;18.224;2023-04-24T11:21:56;11.80;;;5.20;;
57325;SDS011;43161;50.950;18.224;2023-04-24T11:24:33;12.00;;;5.10;;
57325;SDS011;43161;50.950;18.224;2023-04-24T11:32:28;12.40;;;5.10;;
57325;SDS011;43161;50.950;18.224;2023-04-24T11:35:14;11.10;;;5.20;;
57325;SDS011;43161;50.950;18.224;2023-04-24T11:37:45;11.70;;;5.30;;
57325;SDS011;43161;50.950;18.224;2023-04-24T11:40:12;10.30;;;5.20;;
57325;SDS011;43161;50.950;18.224;2023-04-24T11:42:42;13.20;;;4.90;;
57325;SDS011;43161;50.950;18.224;2023-04-24T11:45:10;12.30;;;4.90;;
57325;SDS011;43161;50.950;18.224;2023-04-24T11:47:44;9.10;;;4.80;;
57325;SDS011;43161;50.950;18.224;2023-04-24T11:50:11;11.60;;;5.00;;
57325;SDS011;43161;50.950;18.224;2023-04-24T11:52:39;9.70;;;4.90;;
57325;SDS011;43161;50.950;18.224;2023-04-24T11:55:06;11.00;;;5.00;;
57325;SDS011;43161;50.950;18.224;2023-04-24T11:57:34;13.20;;;5.20;;
57325;SDS011;43161;50.950;18.224;2023-04-24T12:00:02;14.30;;;5.40;;
57325;SDS011;43161;50.950;18.224;2023-04-24T12:02:33;11.30;;;5.00;;
57325;SDS011;43161;50.950;18.224;2023-04-24T12:04:59;13.20;;;6.00;;
57325;SDS011;43161;50.950;18.224;2023-04-24T12:07:24;13.40;;;5.10;;
57325;SDS011;43161;50.950;18.224;2023-04-24T12:09:57;11.30;;;5.40;;
57325;SDS011;43161;50.950;18.224;2023-04-24T12:12:27;10.70;;;5.00;;
57325;SDS011;43161;50.950;18.224;2023-04-24T12:14:54;13.10;;;5.30;;
57325;SDS011;43161;50.950;18.224;2023-04-24T12:17:25;13.60;;;4.90;;
57325;SDS011;43161;50.950;18.224;2023-04-24T12:19:51;10.70;;;4.70;;
57325;SDS011;43161;50.950;18.224;2023-04-24T12:22:17;11.20;;;4.40;;
57325;SDS011;43161;50.950;18.224;2023-04-24T12:29:57;10.00;;;4.70;;
57325;SDS011;43161;50.950;18.224;2023-04-24T12:32:24;11.60;;;4.50;;
57325;SDS011;43161;50.950;18.224;2023-04-24T12:34:51;10.60;;;4.90;;
57325;SDS011;43161;50.950;18.224;2023-04-24T12:37:20;10.40;;;4.70;;
57325;SDS011;43161;50.950;18.224;2023-04-24T12:42:33;13.60;;;4.80;;
57325;SDS011;43161;50.950;18.224;2023-04-24T12:45:03;9.70;;;4.70;;
57325;SDS011;43161;50.950;18.224;2023-04-24T12:47:31;10.40;;;5.20;;
57325;SDS011;43161;50.950;18.224;2023-04-24T12:49:58;11.00;;;4.80;;
57325;SDS011;43161;50.950;18.224;2023-04-24T12:52:24;9.80;;;4.40;;
57325;SDS011;43161;50.950;18.224;2023-04-24T12:54:56;10.40;;;4.50;;
57325;SDS011;43161;50.950;18.224;2023-04-24T12:57:24;10.70;;;4.00;;
57325;SDS011;43161;50.950;18.224;2023-04-24T12:59:51;11.10;;;4.30;;
57325;SDS011;43161;50.950;18.224;2023-04-24T13:02:19;12.90;;;4.50;;
57325;SDS011;43161;50.950;18.224;2023-04-24T13:04:46;9.80;;;4.50;;
57325;SDS011;43161;50.950;18.224;2023-04-24T13:07:12;10.80;;;4.60;;
57325;SDS011;43161;50.950;18.224;2023-04-24T13:09:40;9.70;;;4.40;;
57325;SDS011;43161;50.950;18.224;2023-04-24T13:12:07;10.60;;;4.40;;
57325;SDS011;43161;50.950;18.224;2023-04-24T13:14:33;13.60;;;5.10;;
57325;SDS011;43161;50.950;18.224;2023-04-24T13:16:59;11.00;;;5.00;;
57325;SDS011;43161;50.950;18.224;2023-04-24T13:19:25;11.20;;;5.10;;
57325;SDS011;43161;50.950;18.224;2023-04-24T13:21:51;9.80;;;4.40;;
57325;SDS011;43161;50.950;18.224;2023-04-24T13:24:21;11.40;;;5.30;;
57325;SDS011;43161;50.950;18.224;2023-04-24T13:26:50;9.90;;;4.90;;
57325;SDS011;43161;50.950;18.224;2023-04-24T13:29:16;11.10;;;6.30;;
57325;SDS011;43161;50.950;18.224;2023-04-24T13:31:42;11.40;;;5.70;;
57325;SDS011;43161;50.950;18.224;2023-04-24T13:34:08;13.00;;;7.00;;
57325;SDS011;43161;50.950;18.224;2023-04-24T13:36:34;14.00;;;7.00;;
57325;SDS011;43161;50.950;18.224;2023-04-24T13:39:00;18.00;;;8.80;;
57325;SDS011;43161;50.950;18.224;2023-04-24T13:41:26;14.20;;;7.90;;
57325;SDS011;43161;50.950;18.224;2023-04-24T13:43:52;12.40;;;6.50;;
57325;SDS011;43161;50.950;18.224;2023-04-24T13:46:17;13.20;;;6.50;;
57325;SDS011;43161;50.950;18.224;2023-04-24T13:48:43;12.40;;;6.90;;
57325;SDS011;43161;50.950;18.224;2023-04-24T13:51:09;13.30;;;7.00;;
57325;SDS011;43161;50.950;18.224;2023-04-24T13:53:35;12.70;;;7.40;;
57325;SDS011;43161;50.950;18.224;2023-04-24T13:56:04;11.90;;;6.60;;
57325;SDS011;43161;50.950;18.224;2023-04-24T13:58:31;11.30;;;6.60;;
57325;SDS011;43161;50.950;18.224;2023-04-24T14:00:57;11.70;;;6.60;;
57325;SDS011;43161;50.950;18.224;2023-04-24T14:03:23;14.60;;;7.10;;
57325;SDS011;43161;50.950;18.224;2023-04-24T14:05:49;11.40;;;6.50;;
57325;SDS011;43161;50.950;18.224;2023-04-24T14:08:15;20.10;;;6.50;;
57325;SDS011;43161;50.950;18.224;2023-04-24T14:10:40;14.60;;;7.10;;
57325;SDS011;43161;50.950;18.224;2023-04-24T14:13:07;13.10;;;6.60;;
57325;SDS011;43161;50.950;18.224;2023-04-24T14:15:35;13.50;;;6.70;;
57325;SDS011;43161;50.950;18.224;2023-04-24T14:18:01;13.60;;;7.30;;
57325;SDS011;43161;50.950;18.224;2023-04-24T14:20:28;14.70;;;8.80;;
57325;SDS011;43161;50.950;18.224;2023-04-24T14:22:54;16.20;;;7.50;;
57325;SDS011;43161;50.950;18.224;2023-04-24T14:25:20;13.80;;;7.20;;
57325;SDS011;43161;50.950;18.224;2023-04-24T14:27:47;13.70;;;7.50;;
57325;SDS011;43161;50.950;18.224;2023-04-24T14:30:13;13.00;;;7.50;;
57325;SDS011;43161;50.950;18.224;2023-04-24T14:32:40;14.20;;;7.30;;
57325;SDS011;43161;50.950;18.224;2023-04-24T14:35:06;15.50;;;7.30;;
57325;SDS011;43161;50.950;18.224;2023-04-24T14:37:33;13.50;;;7.20;;
57325;SDS011;43161;50.950;18.224;2023-04-24T14:39:58;12.50;;;7.20;;
57325;SDS011;43161;50.950;18.224;2023-04-24T14:42:24;12.90;;;7.60;;
57325;SDS011;43161;50.950;18.224;2023-04-24T14:44:50;17.40;;;7.50;;